Kent, Minnesota
Current Conditions -  °F | °C
As of 5:55 AM on Thursday 23 Oct 2014 (Local Time) from KBWP Reporting Station
Broken Clouds Broken Clouds  
Wind Chill: 36°   Ceiling: 100
Heat Index: 36°   Visibility: 0.5mi
Dew Point: 34°   Wind: 3mph
Humidity: 93%   Direction: 140°SE
Pressure: 29.93"   Gusts: NA
Location:  46.44°N, 96.68°W
Report Text: KBWP 231055Z AUTO 14003KT 1/2SM BKN001 02/01 A2993 RMK AO1
Loading
Personal Weather Stations






























Interactive Weather Map
Tropical Storm Tracking
New forecast layout! Learn more

10-Day Weather Forecast

Advertisements
Track Severe Weather on mobile